Startpagina
METAR-TAF:

METAR-TAF

Vliegvelden :

Arviat, Nunavut, Canada

breedte: 61-06N, lengte: 094-04W, hoogte: 10 m

Actueel weer

Dit bericht is 18 minuten geleden gemaakt, om 10:47 UTC
Wind 15 kt uit het oostnoordoosten
Temperatuur -16°C
Vochtigheid 92%
Druk 1024 hPa
Zicht: 14.5 km
Onbewolkt

METAR: CYEK 051047Z AUTO 06015KT 9SM CLR M16/M17 A3023 RMK SLP238

Tijdstip: 06:05 (11:05 UTC)

Verwachting

Dit bericht is 5 uur en het 26 minuten geleden gemaakt, om 05:39 UTC
Verwachting geldig van 05 om 06 UTC tot 05 om 18 UTC
Wind 15 kt uit het oosten
Zicht: 10 km
Weinig wolken op 2000 ft
Verspreide wolken op 24000 ft

TAF: CYEK 050539Z 0506/0518 08015KT P6SM FEW020 SCT240 RMK FCST BASED ON AUTO OBS. NXT FCST BY 051200Z

Waarnemingen en weersverwachtingen van meer dan 4000 vliegvelden (METAR en TAF).

De beschikbare stations zijn de gele en rode punten op de kaart.

Ga met uw muis naar het station om de naam te zien.

Klik dan om waarnemingen en weersverwachtingen te zien.

kaart wijzigen: klik op de groene knoppen met een zwart kruis om in te zoomen, op de groene knop met een streepje om uit te zoomen of op de groene pijlen voor aangrenzende kaarten.


METAR-TAF: